createdAt,value
2019-05-25T00:01:51.678Z,99.90
2019-05-25T00:04:20.539Z,99.90
2019-05-25T00:06:49.365Z,99.90
2019-05-25T00:09:18.382Z,99.90
2019-05-25T00:11:47.344Z,99.90
2019-05-25T00:14:16.086Z,99.90
2019-05-25T00:16:46.556Z,99.90
2019-05-25T00:19:15.730Z,99.90
2019-05-25T00:21:44.755Z,99.90
2019-05-25T00:24:13.501Z,99.90
2019-05-25T00:26:42.567Z,99.90
2019-05-25T00:29:11.403Z,99.90
2019-05-25T00:31:40.147Z,99.90
2019-05-25T00:34:08.931Z,99.90
2019-05-25T00:36:37.674Z,99.90
2019-05-25T00:39:07.489Z,99.90
2019-05-25T00:41:36.701Z,99.90
2019-05-25T00:44:05.435Z,99.90
2019-05-25T00:46:34.515Z,99.90
2019-05-25T00:49:03.622Z,99.90
2019-05-25T00:51:32.343Z,99.90
2019-05-25T00:54:01.948Z,99.90
2019-05-25T00:56:30.759Z,99.90
2019-05-25T00:58:59.614Z,99.90
2019-05-25T01:01:28.368Z,99.90
2019-05-25T01:03:57.563Z,99.90
2019-05-25T01:06:26.317Z,99.90
2019-05-25T01:08:55.059Z,99.90
2019-05-25T01:11:23.850Z,99.90
2019-05-25T01:13:52.594Z,99.90
2019-05-25T01:16:21.434Z,99.90
2019-05-25T01:18:50.547Z,99.90
2019-05-25T01:21:19.390Z,99.90
2019-05-25T01:23:48.137Z,99.90
2019-05-25T01:26:17.246Z,99.90
2019-05-25T01:28:46.310Z,99.90
2019-05-25T01:31:15.127Z,99.90
2019-05-25T01:33:44.408Z,99.90
2019-05-25T01:36:13.218Z,99.90
2019-05-25T01:38:41.966Z,99.90
2019-05-25T01:41:11.211Z,99.90
2019-05-25T01:43:40.235Z,99.90
2019-05-25T01:46:10.510Z,99.90
2019-05-25T01:48:39.583Z,99.90
2019-05-25T01:51:08.450Z,99.90
2019-05-25T01:53:37.483Z,99.90
2019-05-25T01:56:06.622Z,99.90
2019-05-25T01:58:35.678Z,99.90
2019-05-25T02:01:04.718Z,99.90
2019-05-25T02:03:33.506Z,99.90
2019-05-25T02:06:02.648Z,99.90
2019-05-25T02:08:31.734Z,99.90
2019-05-25T02:11:00.514Z,99.90
2019-05-25T02:13:29.263Z,99.90
2019-05-25T02:15:58.006Z,99.90
2019-05-25T02:18:26.794Z,99.90
2019-05-25T02:20:55.947Z,99.90
2019-05-25T02:23:24.691Z,99.90
2019-05-25T02:25:53.934Z,99.90
2019-05-25T02:28:22.999Z,99.90
2019-05-25T02:30:52.064Z,99.90
2019-05-25T02:33:20.846Z,99.90
2019-05-25T02:35:49.590Z,99.90
2019-05-25T02:38:18.382Z,99.90
2019-05-25T02:40:47.258Z,99.90
2019-05-25T02:43:16.002Z,99.90
2019-05-25T02:45:44.745Z,99.90
2019-05-25T02:48:13.530Z,99.90
2019-05-25T02:50:43.826Z,99.90
2019-05-25T02:53:12.573Z,99.90
2019-05-25T02:55:41.469Z,99.90
2019-05-25T02:58:10.166Z,99.90
2019-05-25T03:00:38.946Z,99.90
2019-05-25T03:03:07.841Z,99.90
2019-05-25T03:05:36.574Z,99.90
2019-05-25T03:08:05.643Z,99.90
2019-05-25T03:10:34.729Z,99.90
2019-05-25T03:13:05.390Z,99.90
2019-05-25T03:15:34.140Z,99.90
2019-05-25T03:18:03.041Z,99.90
2019-05-25T03:20:31.761Z,99.90
2019-05-25T03:23:00.462Z,99.90
2019-05-25T03:25:29.350Z,99.90
2019-05-25T03:27:58.154Z,99.90
2019-05-25T03:30:37.354Z,99.90
2019-05-25T03:33:06.387Z,99.90
2019-05-25T03:35:35.139Z,99.90
2019-05-25T03:38:03.946Z,99.90
2019-05-25T03:40:32.762Z,99.90
2019-05-25T03:43:01.532Z,99.90
2019-05-25T03:45:30.589Z,99.90
2019-05-25T03:47:59.328Z,99.90
2019-05-25T03:50:28.074Z,99.90
2019-05-25T03:52:56.930Z,99.90
2019-05-25T03:55:25.679Z,99.90
2019-05-25T03:57:54.426Z,99.90
2019-05-25T04:00:37.202Z,99.90
2019-05-25T04:03:08.868Z,99.90
2019-05-25T04:05:37.617Z,99.90
2019-05-25T04:08:06.790Z,99.90
2019-05-25T04:10:38.605Z,99.90
2019-05-25T04:13:07.569Z,99.90
2019-05-25T04:15:36.358Z,99.90
2019-05-25T04:18:05.219Z,99.90
2019-05-25T04:20:33.954Z,99.90
2019-05-25T04:23:02.746Z,99.90
2019-05-25T04:25:31.774Z,99.90
2019-05-25T04:28:00.517Z,99.90
2019-05-25T04:30:29.314Z,99.90
2019-05-25T04:32:58.379Z,99.90
2019-05-25T04:35:27.122Z,99.90
2019-05-25T04:37:55.914Z,99.90
2019-05-25T04:40:24.662Z,99.90
2019-05-25T04:42:53.411Z,99.90
2019-05-25T04:45:22.483Z,99.90
2019-05-25T04:47:51.230Z,99.90
2019-05-25T04:50:20.185Z,99.90
2019-05-25T04:52:49.363Z,99.90
2019-05-25T04:55:18.428Z,99.90
2019-05-25T04:57:47.459Z,99.90
2019-05-25T05:00:16.449Z,99.90
2019-05-25T05:02:45.201Z,99.90
2019-05-25T05:05:14.286Z,99.90
2019-05-25T05:07:43.083Z,99.90
2019-05-25T05:10:12.362Z,99.90
2019-05-25T05:12:41.116Z,99.90
2019-05-25T05:15:10.190Z,99.90
2019-05-25T05:17:38.941Z,99.90
2019-05-25T05:20:08.719Z,99.90
2019-05-25T05:22:38.657Z,99.90
2019-05-25T05:25:09.475Z,99.90
2019-05-25T05:27:39.015Z,99.90
2019-05-25T05:30:09.607Z,99.90
2019-05-25T05:32:38.358Z,99.90
2019-05-25T05:35:08.535Z,99.90
2019-05-25T05:37:37.601Z,99.90
2019-05-25T05:40:09.747Z,99.90
2019-05-25T05:42:39.768Z,99.90
2019-05-25T05:45:10.462Z,99.90
2019-05-25T05:47:41.599Z,99.90
2019-05-25T05:50:11.124Z,99.90
2019-05-25T05:52:40.494Z,99.90
2019-05-25T05:55:12.535Z,99.90
2019-05-25T05:57:41.298Z,99.90
2019-05-25T06:00:11.442Z,99.90
2019-05-25T06:02:40.196Z,99.90
2019-05-25T06:05:09.527Z,99.90
2019-05-25T06:07:38.637Z,99.90
2019-05-25T06:10:09.215Z,99.90
2019-05-25T06:12:37.974Z,99.90
2019-05-25T06:15:07.267Z,99.90
2019-05-25T06:17:36.018Z,99.90
2019-05-25T06:20:06.538Z,99.90
2019-05-25T06:22:35.335Z,99.90
2019-05-25T06:25:05.850Z,99.90
2019-05-25T06:27:34.952Z,99.90
2019-05-25T06:30:05.210Z,99.90
2019-05-25T06:32:34.006Z,99.90
2019-05-25T06:35:02.842Z,99.90
2019-05-25T06:37:31.627Z,99.90
2019-05-25T06:40:00.578Z,99.90
2019-05-25T06:42:29.336Z,99.90
2019-05-25T06:44:58.289Z,99.90
2019-05-25T06:47:27.099Z,99.90
2019-05-25T06:49:55.845Z,99.90
2019-05-25T06:52:24.726Z,99.90
2019-05-25T06:54:53.487Z,99.90
2019-05-25T06:57:22.222Z,99.90
2019-05-25T06:59:52.933Z,99.90
2019-05-25T07:02:22.704Z,99.90
2019-05-25T07:04:51.589Z,99.90
2019-05-25T07:07:20.374Z,99.90
2019-05-25T07:09:49.431Z,99.90
2019-05-25T07:12:18.183Z,99.90
2019-05-25T07:14:47.279Z,99.90
2019-05-25T07:17:16.095Z,99.90
2019-05-25T07:19:44.781Z,99.90
2019-05-25T07:22:13.642Z,99.90
2019-05-25T07:24:42.712Z,99.90
2019-05-25T07:27:12.127Z,99.90
2019-05-25T07:29:40.928Z,99.90
2019-05-25T07:32:09.683Z,99.90
2019-05-25T07:34:38.418Z,99.90
2019-05-25T07:37:07.206Z,99.90
2019-05-25T07:39:35.951Z,99.90
2019-05-25T07:42:04.694Z,99.90
2019-05-25T07:44:33.798Z,99.90
2019-05-25T07:47:02.544Z,99.90
2019-05-25T07:49:31.364Z,99.90
2019-05-25T07:52:02.626Z,99.90
2019-05-25T07:54:30.711Z,99.90
2019-05-25T07:56:59.470Z,99.90
2019-05-25T07:59:28.263Z,99.90
2019-05-25T08:01:57.079Z,99.90
2019-05-25T08:04:26.908Z,99.90
2019-05-25T08:06:56.162Z,99.90
2019-05-25T08:09:26.395Z,99.90
2019-05-25T08:11:55.230Z,99.90
2019-05-25T08:14:24.023Z,99.90
2019-05-25T08:16:52.774Z,99.90
2019-05-25T08:19:21.515Z,99.90
2019-05-25T08:21:50.323Z,99.90
2019-05-25T08:24:19.174Z,99.90
2019-05-25T08:26:47.916Z,99.90
2019-05-25T08:29:16.710Z,99.90
2019-05-25T08:31:45.807Z,99.90
2019-05-25T08:34:14.550Z,99.90
2019-05-25T08:36:43.658Z,99.90
2019-05-25T08:39:12.698Z,99.90
2019-05-25T08:41:45.213Z,99.90
2019-05-25T08:44:11.971Z,99.90
2019-05-25T08:46:40.791Z,99.90
2019-05-25T08:49:10.200Z,99.90
2019-05-25T08:51:39.030Z,99.90
2019-05-25T08:54:07.774Z,99.90
2019-05-25T08:56:36.518Z,99.90
2019-05-25T08:59:05.398Z,99.90
2019-05-25T09:01:35.882Z,99.90
2019-05-25T09:04:04.955Z,99.90
2019-05-25T09:06:34.027Z,99.90
2019-05-25T09:09:03.038Z,99.90
2019-05-25T09:11:31.869Z,99.90
2019-05-25T09:14:00.738Z,99.90
2019-05-25T09:16:30.628Z,99.90
2019-05-25T09:18:59.347Z,99.90
2019-05-25T09:21:28.140Z,99.90
2019-05-25T09:23:56.962Z,99.90
2019-05-25T09:26:25.710Z,99.90
2019-05-25T09:29:04.404Z,99.90
2019-05-25T09:31:26.543Z,99.90
2019-05-25T09:33:55.694Z,99.90
2019-05-25T09:36:25.794Z,99.90
2019-05-25T09:38:54.538Z,99.90
2019-05-25T09:41:23.582Z,99.90
2019-05-25T09:43:52.378Z,99.90
2019-05-25T09:46:21.140Z,99.90
2019-05-25T09:48:50.171Z,99.90
2019-05-25T09:51:19.115Z,99.90
2019-05-25T09:53:47.938Z,99.90
2019-05-25T09:56:16.687Z,99.90
2019-05-25T09:58:45.478Z,99.90
2019-05-25T10:01:14.511Z,99.90
2019-05-25T10:03:43.400Z,99.90
2019-05-25T10:06:13.305Z,99.90
2019-05-25T10:08:42.266Z,99.90
2019-05-25T10:11:11.090Z,99.90
2019-05-25T10:13:39.956Z,99.90
2019-05-25T10:16:08.758Z,99.90
2019-05-25T10:18:37.562Z,99.90
2019-05-25T10:21:06.448Z,99.90
2019-05-25T10:23:35.302Z,99.90
2019-05-25T10:26:04.123Z,99.90
2019-05-25T10:28:32.922Z,99.90
2019-05-25T10:31:02.038Z,99.90
2019-05-25T10:33:30.904Z,99.90
2019-05-25T10:36:00.259Z,99.90
2019-05-25T10:38:29.059Z,99.90
2019-05-25T10:40:58.708Z,99.90
2019-05-25T10:43:27.584Z,99.90
2019-05-25T10:45:56.618Z,99.90
2019-05-25T10:48:25.374Z,99.90
2019-05-25T10:50:54.238Z,99.90
2019-05-25T10:53:22.995Z,99.90
2019-05-25T10:55:53.770Z,99.90
2019-05-25T10:58:22.570Z,99.90
2019-05-25T11:00:51.708Z,99.90
2019-05-25T11:03:20.453Z,99.90
2019-05-25T11:05:49.260Z,99.90
2019-05-25T11:08:18.006Z,99.90
2019-05-25T11:10:47.081Z,99.90
2019-05-25T11:13:15.999Z,99.90
2019-05-25T11:15:44.750Z,99.90
2019-05-25T11:18:13.507Z,99.90
2019-05-25T11:20:42.619Z,99.90
2019-05-25T11:23:11.711Z,99.90
2019-05-25T11:25:40.498Z,99.90
2019-05-25T11:28:09.242Z,99.90
2019-05-25T11:30:38.005Z,99.90
2019-05-25T11:33:07.066Z,96.50
2019-05-25T11:35:35.902Z,94.30
2019-05-25T11:38:04.993Z,97.00
2019-05-25T11:40:33.759Z,92.20
2019-05-25T11:43:02.581Z,94.70
2019-05-25T11:45:31.339Z,93.20
2019-05-25T11:48:00.083Z,92.00
2019-05-25T11:50:28.874Z,91.90
2019-05-25T11:52:57.631Z,93.20
2019-05-25T11:55:26.379Z,92.40
2019-05-25T11:57:55.663Z,91.80
2019-05-25T12:00:27.418Z,90.60
2019-05-25T12:02:57.526Z,87.00
2019-05-25T12:05:26.303Z,88.50
2019-05-25T12:07:55.057Z,90.70
2019-05-25T12:10:23.806Z,90.30
2019-05-25T12:12:53.199Z,90.00
2019-05-25T12:15:22.262Z,87.50
2019-05-25T12:17:53.814Z,91.10
2019-05-25T12:20:22.669Z,88.30
2019-05-25T12:22:52.730Z,90.70
2019-05-25T12:25:23.543Z,88.40
2019-05-25T12:27:53.306Z,90.30
2019-05-25T12:30:39.423Z,90.10
2019-05-25T12:32:54.060Z,90.70
2019-05-25T12:35:23.220Z,95.00
2019-05-25T12:37:52.034Z,90.90
2019-05-25T12:40:21.204Z,90.50
2019-05-25T12:42:49.993Z,86.50
2019-05-25T12:45:19.042Z,89.70
2019-05-25T12:47:47.876Z,87.90
2019-05-25T12:50:16.944Z,82.20
2019-05-25T12:52:45.727Z,83.90
2019-05-25T12:55:14.474Z,78.30
2019-05-25T12:57:43.271Z,83.10
2019-05-25T13:00:16.019Z,82.60
2019-05-25T13:02:42.720Z,79.60
2019-05-25T13:05:12.166Z,79.30
2019-05-25T13:07:40.917Z,76.10
2019-05-25T13:10:10.102Z,75.20
2019-05-25T13:12:39.215Z,78.30
2019-05-25T13:15:08.230Z,75.00
2019-05-25T13:17:36.986Z,77.50
2019-05-25T13:20:07.465Z,78.10
2019-05-25T13:22:36.599Z,80.00
2019-05-25T13:25:08.827Z,82.30
2019-05-25T13:27:37.979Z,82.30
2019-05-25T13:30:08.202Z,80.90
2019-05-25T13:32:36.939Z,78.70
2019-05-25T13:35:07.317Z,78.00
2019-05-25T13:37:36.049Z,79.60
2019-05-25T13:40:06.926Z,79.60
2019-05-25T13:42:35.730Z,77.30
2019-05-25T13:45:06.473Z,75.30
2019-05-25T13:47:35.215Z,69.50
2019-05-25T13:50:07.251Z,75.00
2019-05-25T13:52:36.078Z,76.00
2019-05-25T13:55:05.622Z,68.10
2019-05-25T13:57:34.742Z,68.90
2019-05-25T14:00:04.824Z,61.10
2019-05-25T14:02:33.602Z,66.30
2019-05-25T14:05:02.389Z,56.60
2019-05-25T14:07:31.134Z,58.10
2019-05-25T14:10:00.391Z,55.40
2019-05-25T14:12:29.435Z,58.20
2019-05-25T14:14:58.214Z,56.70
2019-05-25T14:17:26.955Z,58.20
2019-05-25T14:19:55.760Z,58.10
2019-05-25T14:22:24.502Z,59.80
2019-05-25T14:24:53.631Z,61.70
2019-05-25T14:27:22.517Z,57.50
2019-05-25T14:29:52.455Z,58.20
2019-05-25T14:32:23.676Z,61.20
2019-05-25T14:34:52.454Z,58.40
2019-05-25T14:37:21.210Z,59.80
2019-05-25T14:39:50.689Z,60.30
2019-05-25T14:42:19.935Z,57.80
2019-05-25T14:44:48.708Z,59.50
2019-05-25T14:47:17.526Z,57.40
2019-05-25T14:49:46.446Z,56.40
2019-05-25T14:52:15.203Z,58.80
2019-05-25T14:54:43.947Z,58.30
2019-05-25T14:57:12.806Z,58.30
2019-05-25T14:59:41.550Z,57.00
2019-05-25T15:02:10.294Z,58.90
2019-05-25T15:04:39.367Z,58.50
2019-05-25T15:07:08.136Z,61.50
2019-05-25T15:09:36.876Z,63.00
2019-05-25T15:12:05.662Z,61.10
2019-05-25T15:14:34.722Z,62.60
2019-05-25T15:17:03.756Z,58.80
2019-05-25T15:19:32.546Z,62.60
2019-05-25T15:22:01.469Z,59.80
2019-05-25T15:24:30.227Z,62.10
2019-05-25T15:26:59.149Z,62.50
2019-05-25T15:29:28.214Z,64.30
2019-05-25T15:31:57.475Z,64.40
2019-05-25T15:34:26.262Z,63.80
2019-05-25T15:36:55.087Z,63.30
2019-05-25T15:39:23.832Z,63.40
2019-05-25T15:41:52.614Z,64.50
2019-05-25T15:44:21.358Z,64.40
2019-05-25T15:46:50.455Z,64.40
2019-05-25T15:49:19.262Z,63.20
2019-05-25T15:51:48.271Z,65.30
2019-05-25T15:54:16.999Z,61.70
2019-05-25T15:56:45.789Z,64.20
2019-05-25T15:59:14.534Z,65.40
2019-05-25T16:01:43.280Z,65.80
2019-05-25T16:04:12.137Z,67.30
2019-05-25T16:06:40.882Z,64.00
2019-05-25T16:09:09.626Z,66.50
2019-05-25T16:11:38.791Z,64.30
2019-05-25T16:14:07.947Z,63.50
2019-05-25T16:16:36.686Z,66.90
2019-05-25T16:19:05.504Z,67.80
2019-05-25T16:21:34.243Z,67.40
2019-05-25T16:24:03.061Z,70.30
2019-05-25T16:26:44.875Z,68.10
2019-05-25T16:29:02.634Z,68.90
2019-05-25T16:31:31.375Z,68.20
2019-05-25T16:34:00.479Z,69.20
2019-05-25T16:36:29.584Z,70.50
2019-05-25T16:38:58.394Z,69.60
2019-05-25T16:41:27.250Z,70.50
2019-05-25T16:43:56.279Z,70.10
2019-05-25T16:46:25.019Z,70.20
2019-05-25T16:48:53.807Z,70.40
2019-05-25T16:51:22.839Z,70.30
2019-05-25T16:53:53.748Z,74.10
2019-05-25T16:56:22.855Z,69.60
2019-05-25T16:58:51.767Z,70.30
2019-05-25T17:01:21.143Z,73.60
2019-05-25T17:03:49.997Z,76.20
2019-05-25T17:06:19.218Z,70.30
2019-05-25T17:08:47.972Z,74.60
2019-05-25T17:11:17.350Z,74.80
2019-05-25T17:13:46.107Z,68.70
2019-05-25T17:16:14.888Z,72.90
2019-05-25T17:18:43.675Z,69.10
2019-05-25T17:21:12.728Z,68.00
2019-05-25T17:23:41.830Z,68.80
2019-05-25T17:26:10.632Z,68.40
2019-05-25T17:28:39.878Z,68.40
2019-05-25T17:31:08.680Z,67.50
2019-05-25T17:33:45.944Z,69.10
2019-05-25T17:36:08.246Z,69.10
2019-05-25T17:38:37.268Z,69.30
2019-05-25T17:41:07.210Z,70.00
2019-05-25T17:43:35.963Z,69.40
2019-05-25T17:46:06.374Z,71.90
2019-05-25T17:48:35.161Z,73.10
2019-05-25T17:51:04.943Z,72.10
2019-05-25T17:53:34.042Z,73.30
2019-05-25T17:56:03.007Z,71.70
2019-05-25T17:58:32.054Z,72.90
2019-05-25T18:01:00.874Z,75.50
2019-05-25T18:03:31.575Z,76.90
2019-05-25T18:06:00.315Z,75.60
2019-05-25T18:08:29.134Z,78.00
2019-05-25T18:10:57.914Z,80.40
2019-05-25T18:13:28.928Z,83.80
2019-05-25T18:15:57.043Z,87.20
2019-05-25T18:18:25.901Z,88.90
2019-05-25T18:20:54.755Z,90.20
2019-05-25T18:23:23.827Z,90.60
2019-05-25T18:25:52.619Z,92.30
2019-05-25T18:28:21.363Z,93.30
2019-05-25T18:30:51.749Z,94.60
2019-05-25T18:33:20.550Z,97.50
2019-05-25T18:35:49.298Z,99.90
2019-05-25T18:38:18.154Z,99.90
2019-05-25T18:40:48.902Z,99.90
2019-05-25T18:43:17.710Z,99.90
2019-05-25T18:45:46.457Z,99.90
2019-05-25T18:48:15.244Z,99.90
2019-05-25T18:50:44.393Z,99.90
2019-05-25T18:53:13.458Z,99.90
2019-05-25T18:55:42.636Z,99.90
2019-05-25T18:58:11.374Z,99.90
2019-05-25T19:00:40.185Z,99.90
2019-05-25T19:03:09.357Z,99.90
2019-05-25T19:05:38.045Z,99.90
2019-05-25T19:08:06.910Z,99.90
2019-05-25T19:10:35.761Z,99.90
2019-05-25T19:13:05.289Z,99.90
2019-05-25T19:15:34.044Z,99.90
2019-05-25T19:18:02.910Z,99.90
2019-05-25T19:20:31.661Z,99.90
2019-05-25T19:23:00.402Z,99.90
2019-05-25T19:25:29.339Z,99.90
2019-05-25T19:27:58.091Z,99.90
2019-05-25T19:30:26.914Z,99.90
2019-05-25T19:32:55.773Z,99.90
2019-05-25T19:35:27.273Z,99.90
2019-05-25T19:37:56.014Z,99.90
2019-05-25T19:40:24.806Z,99.90
2019-05-25T19:42:53.925Z,99.90
2019-05-25T19:45:22.871Z,99.90
2019-05-25T19:47:51.754Z,99.90
2019-05-25T19:50:20.514Z,99.90
2019-05-25T19:52:49.264Z,99.90
2019-05-25T19:55:18.196Z,99.90
2019-05-25T19:57:46.938Z,99.90
2019-05-25T20:00:17.828Z,99.90
2019-05-25T20:02:46.686Z,99.90
2019-05-25T20:05:17.291Z,99.90
2019-05-25T20:07:46.391Z,99.90
2019-05-25T20:10:16.945Z,99.90
2019-05-25T20:12:45.695Z,99.90
2019-05-25T20:15:15.705Z,99.90
2019-05-25T20:17:44.457Z,99.90
2019-05-25T20:20:13.827Z,99.90
2019-05-25T20:22:42.615Z,99.90
2019-05-25T20:25:11.612Z,99.90
2019-05-25T20:27:40.350Z,99.90
2019-05-25T20:30:10.136Z,99.90
2019-05-25T20:32:39.320Z,99.90
2019-05-25T20:35:10.203Z,99.90
2019-05-25T20:37:41.518Z,99.90
2019-05-25T20:40:10.816Z,99.90
2019-05-25T20:42:39.615Z,99.90
2019-05-25T20:45:09.154Z,99.90
2019-05-25T20:47:38.511Z,99.90
2019-05-25T20:50:08.604Z,99.90
2019-05-25T20:52:37.660Z,99.90
2019-05-25T20:55:08.466Z,99.90
2019-05-25T20:57:37.211Z,99.90
2019-05-25T21:00:06.364Z,99.90
2019-05-25T21:02:35.150Z,99.90
2019-05-25T21:05:05.722Z,99.90
2019-05-25T21:07:34.467Z,99.90
2019-05-25T21:10:05.051Z,99.90
2019-05-25T21:12:34.111Z,99.90
2019-05-25T21:15:03.022Z,99.90
2019-05-25T21:17:32.131Z,99.90
2019-05-25T21:20:00.891Z,99.90
2019-05-25T21:22:29.631Z,99.90
2019-05-25T21:25:05.279Z,99.90
2019-05-25T21:27:29.083Z,99.90
2019-05-25T21:29:57.898Z,99.90
2019-05-25T21:32:26.682Z,99.90
2019-05-25T21:34:55.425Z,99.90
2019-05-25T21:37:24.491Z,99.90
2019-05-25T21:39:55.975Z,99.90
2019-05-25T21:42:24.720Z,99.90
2019-05-25T21:44:53.462Z,99.90
2019-05-25T21:47:22.581Z,99.90
2019-05-25T21:49:52.431Z,99.90
2019-05-25T21:52:21.287Z,99.90
2019-05-25T21:54:50.074Z,99.90
2019-05-25T21:57:18.823Z,99.90
2019-05-25T21:59:47.571Z,99.90
2019-05-25T22:02:16.706Z,99.90
2019-05-25T22:04:46.918Z,99.90
2019-05-25T22:07:15.948Z,99.90
2019-05-25T22:09:45.078Z,99.90
2019-05-25T22:12:13.995Z,99.90
2019-05-25T22:14:42.802Z,99.90
2019-05-25T22:17:11.659Z,99.90
2019-05-25T22:19:40.728Z,99.90
2019-05-25T22:22:09.830Z,99.90
2019-05-25T22:24:38.618Z,99.90
2019-05-25T22:27:07.487Z,99.90
2019-05-25T22:29:36.229Z,99.90
2019-05-25T22:32:05.176Z,99.90
2019-05-25T22:34:33.926Z,99.90
2019-05-25T22:37:02.672Z,99.90
2019-05-25T22:39:31.539Z,99.90
2019-05-25T22:42:00.614Z,99.90
2019-05-25T22:44:29.467Z,99.90
2019-05-25T22:46:58.466Z,99.90
2019-05-25T22:49:27.539Z,99.90
2019-05-25T22:51:56.285Z,99.90
2019-05-25T22:54:25.083Z,99.90
2019-05-25T22:56:53.815Z,99.90
2019-05-25T22:59:22.916Z,99.90
2019-05-25T23:01:52.154Z,99.90
2019-05-25T23:04:20.894Z,99.90
2019-05-25T23:06:57.924Z,99.90
2019-05-25T23:09:20.360Z,99.90
2019-05-25T23:11:49.102Z,99.90
2019-05-25T23:14:19.415Z,99.90
2019-05-25T23:16:48.194Z,99.90
2019-05-25T23:19:16.938Z,99.90
2019-05-25T23:21:45.682Z,99.90
2019-05-25T23:24:14.544Z,99.90
2019-05-25T23:26:43.355Z,99.90
2019-05-25T23:29:12.148Z,99.90
2019-05-25T23:31:41.083Z,99.90
2019-05-25T23:34:09.839Z,99.90
2019-05-25T23:36:38.758Z,99.90
2019-05-25T23:39:08.031Z,99.90
2019-05-25T23:41:38.411Z,99.90
2019-05-25T23:44:07.479Z,99.90
2019-05-25T23:46:36.262Z,99.90
2019-05-25T23:49:05.038Z,99.90
2019-05-25T23:51:34.110Z,99.90
2019-05-25T23:54:02.942Z,99.90
2019-05-25T23:56:31.693Z,99.90
2019-05-25T23:59:00.431Z,99.90
